Time;durP1;ratioP1;P1;durP2;ratioP2;P2;SDS_P1;SDS_P2;PMS_P1;PMS_P2;Temp;Humidity;BMP_temperature;BMP_pressure;BME280_temperature;BME280_humidity;BME280_pressure;Samples;Min_cycle;Max_cycle;Signal;HPM_P1;HPM_P2
2022/10/05 00:00:49;;;;;;;6.92;3.30;;;;;;;9.37;100.00;98606.48;1797387;79;21218;-57
2022/10/05 00:03:16;;;;;;;5.95;3.47;;;;;;;9.38;100.00;98601.41;1797761;79;21427;-56
2022/10/05 00:05:44;;;;;;;8.40;3.25;;;;;;;9.39;100.00;98604.36;1797380;79;20928;-57
2022/10/05 00:08:17;;;;;;;4.97;3.15;;;;;;;9.38;100.00;98608.09;1797672;79;21501;-57
2022/10/05 00:10:45;;;;;;;5.97;3.40;;;;;;;9.37;100.00;98607.81;1797513;79;20877;-55
2022/10/05 00:13:25;;;;;;;5.10;3.65;;;;;;;9.39;100.00;98614.25;1797484;79;21099;-56
2022/10/05 00:16:00;;;;;;;10.18;3.70;;;;;;;9.38;100.00;98614.78;1797335;79;20952;-57
2022/10/05 00:18:27;;;;;;;4.47;3.30;;;;;;;9.38;100.00;98612.63;1797825;79;20881;-56
2022/10/05 00:20:54;;;;;;;6.25;3.22;;;;;;;9.37;100.00;98605.14;1797397;79;20919;-55
2022/10/05 00:23:24;;;;;;;6.53;3.60;;;;;;;9.36;100.00;98598.20;1797389;79;20920;-55
2022/10/05 00:25:51;;;;;;;8.13;3.50;;;;;;;9.37;100.00;98605.14;1797381;79;21102;-56
2022/10/05 00:28:29;;;;;;;8.40;3.60;;;;;;;9.38;100.00;98599.27;1797373;79;20877;-55
2022/10/05 00:30:58;;;;;;;7.30;3.70;;;;;;;9.36;100.00;98605.42;1797423;79;20877;-55
2022/10/05 00:33:26;;;;;;;6.53;3.25;;;;;;;9.33;100.00;98609.95;1797461;79;20920;-56
2022/10/05 00:35:54;;;;;;;4.92;3.12;;;;;;;9.32;100.00;98602.49;1797354;79;20876;-55
2022/10/05 00:38:21;;;;;;;7.83;3.33;;;;;;;9.32;100.00;98609.17;1797457;79;21099;-56
2022/10/05 00:41:08;;;;;;;6.83;3.70;;;;;;;9.30;100.00;98607.28;1797333;79;20876;-56
2022/10/05 00:44:00;;;;;;;8.95;3.72;;;;;;;9.30;100.00;98604.60;1787432;79;20908;-56
2022/10/05 00:46:44;;;;;;;5.78;3.10;;;;;;;9.26;100.00;98612.09;1797350;79;20928;-56
2022/10/05 00:49:43;;;;;;;6.22;3.65;;;;;;;9.23;100.00;98605.41;1797086;79;20960;-55
2022/10/05 00:52:48;;;;;;;6.67;3.40;;;;;;;9.17;100.00;98602.47;1797444;79;21222;-56
2022/10/05 00:56:01;;;;;;;5.50;3.58;;;;;;;9.14;100.00;98602.99;1797455;79;20908;-56
2022/10/05 00:59:03;;;;;;;6.60;3.33;;;;;;;9.10;100.00;98611.81;1797634;79;21368;-55
2022/10/05 01:01:42;;;;;;;7.10;3.50;;;;;;;9.05;100.00;98615.28;1797426;79;21019;-56
2022/10/05 01:04:55;;;;;;;3.83;3.22;;;;;;;8.98;100.00;98628.09;1797493;79;21051;-56
2022/10/05 01:07:45;;;;;;;5.65;3.60;;;;;;;8.93;100.00;98629.41;1797401;79;21107;-56
2022/10/05 01:10:21;;;;;;;9.03;3.70;;;;;;;8.82;100.00;98623.78;1721919;79;21064;-56
2022/10/05 01:13:20;;;;;;;10.63;3.60;;;;;;;8.76;100.00;98631.53;1797634;79;27532;-56
2022/10/05 01:15:53;;;;;;;7.12;3.67;;;;;;;8.71;100.00;98624.83;1797384;79;21447;-56
2022/10/05 01:18:28;;;;;;;6.53;3.42;;;;;;;8.65;100.00;98631.20;1797638;79;20892;-56
2022/10/05 01:21:12;;;;;;;8.08;3.58;;;;;;;8.63;100.00;98633.34;1797578;79;26466;-56
2022/10/05 01:23:59;;;;;;;4.28;3.27;;;;;;;8.61;100.00;98634.14;1777114;79;20837;-56
2022/10/05 01:27:03;;;;;;;7.28;3.85;;;;;;;8.55;100.00;98640.53;1797259;79;20873;-56
2022/10/05 01:29:44;;;;;;;8.10;3.17;;;;;;;8.50;100.00;98647.19;1777384;79;21095;-56
2022/10/05 01:32:31;;;;;;;10.63;3.20;;;;;;;8.45;100.00;98641.81;1797209;79;20967;-56
2022/10/05 01:35:20;;;;;;;7.15;3.70;;;;;;;8.39;100.00;98652.99;1795024;79;21195;-55
2022/10/05 01:38:13;;;;;;;7.58;3.90;;;;;;;8.35;100.00;98649.77;1797397;79;20873;-56
2022/10/05 01:40:52;;;;;;;6.40;3.70;;;;;;;8.32;100.00;98655.62;1797063;79;20873;-56
2022/10/05 01:43:48;;;;;;;7.47;3.12;;;;;;;8.27;100.00;98659.63;1794730;79;21511;-56
2022/10/05 01:46:26;;;;;;;6.70;3.52;;;;;;;8.23;100.00;98663.30;1794784;79;20866;-56
2022/10/05 01:49:13;;;;;;;7.22;3.95;;;;;;;8.18;100.00;98660.07;1794442;79;21161;-55
2022/10/05 01:52:20;;;;;;;9.00;4.10;;;;;;;8.15;100.00;98655.23;1794193;79;20908;-56
2022/10/05 01:55:13;;;;;;;5.60;3.30;;;;;;;8.13;100.00;98664.03;1794560;80;20857;-56
2022/10/05 01:58:04;;;;;;;7.33;3.90;;;;;;;8.10;100.00;98659.20;1794497;80;21008;-56
2022/10/05 02:00:36;;;;;;;9.63;3.55;;;;;;;8.07;100.00;98669.61;1794616;80;20928;-57
2022/10/05 02:03:23;;;;;;;7.40;3.90;;;;;;;8.01;100.00;98668.77;1794514;80;21289;-57
2022/10/05 02:05:59;;;;;;;6.47;3.25;;;;;;;8.00;100.00;98672.51;1794533;80;20889;-57
2022/10/05 02:08:34;;;;;;;6.97;3.58;;;;;;;7.99;100.00;98669.55;1794641;80;20838;-57
2022/10/05 02:11:08;;;;;;;6.90;3.77;;;;;;;7.97;100.00;98673.02;1794499;80;20924;-57
2022/10/05 02:13:43;;;;;;;5.85;3.42;;;;;;;7.93;100.00;98669.26;1794659;80;20909;-57
2022/10/05 02:16:34;;;;;;;8.05;3.65;;;;;;;7.91;100.00;98670.57;1794764;80;21596;-57
2022/10/05 02:19:34;;;;;;;9.13;3.20;;;;;;;7.85;100.00;98673.72;1794446;80;20917;-55
2022/10/05 02:22:25;;;;;;;6.92;3.45;;;;;;;7.82;100.00;98675.56;1794313;79;20916;-55
2022/10/05 02:24:58;;;;;;;8.60;3.65;;;;;;;7.80;100.00;98683.02;1794584;80;20964;-56
2022/10/05 02:27:34;;;;;;;7.28;3.42;;;;;;;7.76;100.00;98683.26;1794532;80;20841;-56
2022/10/05 02:30:04;;;;;;;;;;;;;;;7.73;100.00;98685.09;1797735;80;21183;-56
2022/10/05 02:32:41;;;;;;;7.45;3.55;;;;;;;7.72;100.00;98684.84;1774807;81;20061;-56
2022/10/05 02:35:15;;;;;;;8.13;4.12;;;;;;;7.71;100.00;98692.55;1771454;80;20977;-55
2022/10/05 02:37:59;;;;;;;11.85;3.90;;;;;;;7.71;100.00;98692.55;1769926;80;20956;-56
2022/10/05 02:40:57;;;;;;;4.20;3.10;;;;;;;7.72;100.00;98702.69;1789729;80;20877;-55
2022/10/05 02:43:33;;;;;;;6.22;4.05;;;;;;;7.71;100.00;98707.22;1794686;80;21092;-56
2022/10/05 02:46:40;;;;;;;6.58;3.80;;;;;;;7.70;100.00;98708.26;1794605;80;20951;-56
2022/10/05 02:49:17;;;;;;;14.30;4.60;;;;;;;7.68;100.00;98711.72;1794763;80;20881;-55
2022/10/05 02:52:17;;;;;;;9.93;4.28;;;;;;;7.67;100.00;98712.79;1790956;79;21420;-55
2022/10/05 02:55:03;;;;;;;7.37;3.65;;;;;;;7.64;100.00;98710.63;1794740;80;20888;-56
2022/10/05 02:57:53;;;;;;;8.75;4.70;;;;;;;7.62;100.00;98711.93;1794751;80;21267;-55
2022/10/05 03:00:22;;;;;;;10.20;4.40;;;;;;;7.58;100.00;98707.09;1794562;80;20919;-56
2022/10/05 03:03:01;;;;;;;12.47;4.47;;;;;;;7.55;100.00;98694.30;1794609;80;20952;-56
2022/10/05 03:05:39;;;;;;;8.20;4.72;;;;;;;7.56;100.00;98711.07;1794943;80;21376;-55
2022/10/05 03:08:17;;;;;;;10.55;4.67;;;;;;;7.56;100.00;98708.41;1794360;79;20884;-55
2022/10/05 03:11:05;;;;;;;9.30;5.00;;;;;;;7.56;100.00;98699.08;1794643;80;21058;-56
2022/10/05 03:14:00;;;;;;;6.92;4.55;;;;;;;7.54;100.00;98701.19;1794442;79;20929;-55
2022/10/05 03:17:15;;;;;;;8.75;4.70;;;;;;;7.53;100.00;98699.08;1795634;79;20932;-55
2022/10/05 03:20:02;;;;;;;11.05;5.58;;;;;;;7.53;100.00;98700.94;1794581;80;20857;-55
2022/10/05 03:22:56;;;;;;;12.20;5.70;;;;;;;7.52;100.00;98701.45;1786591;80;20987;-55
2022/10/05 03:25:59;;;;;;;9.13;5.15;;;;;;;7.49;100.00;98693.14;1794648;80;21094;-57
2022/10/05 03:28:42;;;;;;;11.00;5.45;;;;;;;7.47;100.00;98696.59;1794966;79;20853;-56
2022/10/05 03:31:40;;;;;;;9.15;5.75;;;;;;;7.45;100.00;98702.72;1794731;80;20948;-55
2022/10/05 03:34:16;;;;;;;13.10;5.90;;;;;;;7.43;100.00;98694.17;1794594;80;20877;-54
2022/10/05 03:37:01;;;;;;;9.58;5.92;;;;;;;7.42;100.00;98693.88;1794757;79;20880;-56
2022/10/05 03:39:55;;;;;;;12.43;6.08;;;;;;;7.41;100.00;98694.95;1794637;80;21210;-57
2022/10/05 03:42:30;;;;;;;12.68;6.05;;;;;;;7.41;100.00;98704.28;1794519;79;20917;-54
2022/10/05 03:45:15;;;;;;;12.28;5.72;;;;;;;7.38;100.00;98712.77;1794007;79;20873;-56
2022/10/05 03:48:00;;;;;;;9.28;5.22;;;;;;;7.37;100.00;98701.86;1794734;80;20885;-55
2022/10/05 03:50:54;;;;;;;12.75;6.37;;;;;;;7.35;100.00;98708.75;1794524;79;20912;-55
2022/10/05 03:53:24;;;;;;;13.83;6.20;;;;;;;7.34;100.00;98707.69;1794714;80;21267;-57
2022/10/05 03:55:59;;;;;;;9.55;5.92;;;;;;;7.33;100.00;98706.87;1794520;80;20964;-57
2022/10/05 03:58:45;;;;;;;12.78;5.80;;;;;;;7.32;100.00;98703.13;1794624;80;20850;-57
2022/10/05 04:01:16;;;;;;;10.50;6.10;;;;;;;7.32;100.00;98708.47;1794620;80;20968;-56
2022/10/05 04:03:53;;;;;;;8.70;6.00;;;;;;;7.30;100.00;98713.25;1795007;80;20910;-56
2022/10/05 04:06:25;;;;;;;14.90;7.10;;;;;;;7.29;100.00;98718.28;1794550;79;21112;-55
2022/10/05 04:09:23;;;;;;;15.28;6.42;;;;;;;7.28;100.00;98720.66;1794523;80;21003;-55
2022/10/05 04:12:12;;;;;;;12.33;6.47;;;;;;;7.28;100.00;98724.66;1794582;80;20967;-55
2022/10/05 04:15:01;;;;;;;12.07;6.80;;;;;;;7.26;100.00;98732.10;1794656;80;21499;-55
2022/10/05 04:17:44;;;;;;;12.68;7.25;;;;;;;7.24;100.00;98727.03;1794622;80;20846;-55
2022/10/05 04:20:28;;;;;;;10.43;6.58;;;;;;;7.24;100.00;98732.88;1794564;80;21220;-55
2022/10/05 04:23:18;;;;;;;11.65;6.37;;;;;;;7.23;100.00;98733.41;1794833;80;21376;-57
2022/10/05 04:25:54;;;;;;;10.88;6.58;;;;;;;7.24;100.00;98736.36;1794548;80;20893;-58
2022/10/05 04:28:44;;;;;;;11.75;7.37;;;;;;;7.26;100.00;98740.91;1794531;80;20924;-57
2022/10/05 04:31:41;;;;;;;14.65;7.80;;;;;;;7.26;100.00;98742.77;1794694;80;20924;-55
2022/10/05 04:34:36;;;;;;;9.68;6.25;;;;;;;7.24;100.00;98747.54;1785618;79;21125;-56
2022/10/05 04:37:06;;;;;;;13.20;7.05;;;;;;;7.25;100.00;98753.16;1794583;80;20920;-56
2022/10/05 04:39:40;;;;;;;16.15;7.65;;;;;;;7.25;100.00;98757.16;1794567;80;20904;-57
2022/10/05 04:42:46;;;;;;;13.90;7.55;;;;;;;7.27;100.00;98760.38;1794403;79;20922;-57
2022/10/05 04:45:37;;;;;;;13.85;8.05;;;;;;;7.27;100.00;98755.05;1782889;79;20940;-57
2022/10/05 04:48:33;;;;;;;12.60;7.62;;;;;;;7.25;100.00;98766.48;1794790;80;21962;-56
2022/10/05 04:51:26;;;;;;;14.35;8.43;;;;;;;7.26;100.00;98762.75;1794563;80;20967;-56
2022/10/05 04:53:58;;;;;;;9.80;7.40;;;;;;;7.24;100.00;98764.34;1776457;80;20877;-56
2022/10/05 04:56:50;;;;;;;12.15;8.00;;;;;;;7.25;100.00;98765.15;1794441;79;20834;-58
2022/10/05 04:59:31;;;;;;;17.60;8.30;;;;;;;7.26;100.00;98770.74;1793085;79;20874;-57
2022/10/05 05:02:22;;;;;;;13.55;7.20;;;;;;;7.27;100.00;98774.51;1765390;79;21136;-58
2022/10/05 05:05:33;;;;;;;12.80;7.58;;;;;;;7.30;100.00;98786.53;1768733;80;20931;-55
2022/10/05 05:08:51;;;;;;;14.73;7.65;;;;;;;7.31;100.00;98790.78;1765493;81;21010;-56
2022/10/05 05:11:31;;;;;;;17.73;8.05;;;;;;;7.33;100.00;98792.67;1766125;81;20864;-56
2022/10/05 05:14:49;;;;;;;15.18;7.87;;;;;;;7.32;100.00;98797.73;1761904;80;21070;-54
2022/10/05 05:17:53;;;;;;;14.85;7.37;;;;;;;7.31;100.00;98801.45;1781522;80;21382;-55
2022/10/05 05:20:48;;;;;;;15.18;7.20;;;;;;;7.33;100.00;98795.33;1739228;82;21066;-56
2022/10/05 05:23:29;;;;;;;9.95;7.33;;;;;;;7.34;100.00;98787.63;1777653;80;20891;-56
2022/10/05 05:26:23;;;;;;;14.47;7.58;;;;;;;7.38;100.00;98786.06;1778301;80;21033;-56
2022/10/05 05:34:52;;;;;;;13.03;6.95;;;;;;;7.58;100.00;98811.63;1753858;81;20967;-57
2022/10/05 05:37:52;;;;;;;13.10;7.10;;;;;;;7.68;100.00;98810.38;1729087;81;21075;-57
2022/10/05 05:40:28;;;;;;;15.13;6.87;;;;;;;7.77;100.00;98801.41;1719193;82;21069;-57
2022/10/05 05:43:02;;;;;;;12.13;6.83;;;;;;;7.83;100.00;98803.86;1744206;82;21389;-57
2022/10/05 05:45:44;;;;;;;16.37;7.10;;;;;;;7.88;100.00;98819.11;1710328;82;21243;-56
2022/10/05 05:48:36;;;;;;;11.28;6.40;;;;;;;7.89;100.00;98822.84;1716599;82;21008;-55
2022/10/05 05:51:26;;;;;;;12.65;6.72;;;;;;;7.95;100.00;98825.86;1670269;83;21469;-58
2022/10/05 05:54:30;;;;;;;12.07;6.22;;;;;;;8.05;100.00;98821.14;1705537;83;21708;-56
2022/10/05 05:57:26;;;;;;;15.18;6.90;;;;;;;8.16;100.00;98818.30;1716703;83;20912;-56
2022/10/05 06:00:15;;;;;;;14.58;7.85;;;;;;;8.30;100.00;98816.03;1712286;82;21248;-56
2022/10/05 06:03:18;;;;;;;16.10;8.05;;;;;;;8.39;100.00;98819.02;1708888;83;21054;-56
2022/10/05 06:05:55;;;;;;;9.55;6.03;;;;;;;8.45;100.00;98823.36;1707552;81;20976;-55
2022/10/05 06:08:38;;;;;;;9.28;6.17;;;;;;;8.52;100.00;98829.28;1715442;81;20995;-56
2022/10/05 06:11:36;;;;;;;14.83;6.47;;;;;;;8.59;100.00;98834.68;1700350;82;21130;-56
2022/10/05 06:14:13;;;;;;;10.43;6.15;;;;;;;8.66;100.00;98841.13;1686729;83;21131;-57
2022/10/05 06:16:56;;;;;;;13.58;7.10;;;;;;;8.71;100.00;98847.84;1672860;82;21655;-57
2022/10/05 06:19:27;;;;;;;;;;;;;;;8.77;100.00;98849.47;1710584;81;32922;-53
2022/10/05 06:22:08;;;;;;;10.65;6.42;;;;;;;8.86;100.00;98853.27;1666508;83;20238;-56
2022/10/05 06:24:43;;;;;;;12.75;6.37;;;;;;;8.95;100.00;98855.72;1664868;83;20931;-56
2022/10/05 06:27:28;;;;;;;11.65;6.85;;;;;;;8.93;100.00;98845.83;1696651;82;21166;-56
2022/10/05 06:30:15;;;;;;;11.25;6.53;;;;;;;8.94;100.00;98835.42;1681555;84;21149;-57
2022/10/05 06:33:14;;;;;;;14.10;6.92;;;;;;;8.99;100.00;98838.12;1712927;83;21549;-56
2022/10/05 06:36:28;;;;;;;10.63;6.45;;;;;;;8.99;100.00;98850.16;1714145;83;21201;-55
2022/10/05 06:39:38;;;;;;;11.83;6.30;;;;;;;8.97;100.00;98853.62;1707787;82;21077;-56
2022/10/05 06:42:31;;;;;;;16.12;6.85;;;;;;;8.95;100.00;98846.37;1715032;82;21097;-56
2022/10/05 06:45:32;;;;;;;11.78;6.58;;;;;;;8.98;100.00;98844.52;1702335;81;21057;-59
2022/10/05 06:48:30;;;;;;;17.27;6.35;;;;;;;9.03;99.72;98867.80;1716046;83;21011;-55
2022/10/05 06:51:10;;;;;;;13.00;6.10;;;;;;;9.06;99.26;98881.45;1675093;83;21423;-55
2022/10/05 06:53:55;;;;;;;12.60;6.80;;;;;;;9.09;99.46;98869.45;1735044;80;21081;-58
2022/10/05 06:56:33;;;;;;;11.45;6.72;;;;;;;9.14;99.62;98866.25;1749386;81;21152;-56
2022/10/05 06:59:09;;;;;;;10.58;6.55;;;;;;;9.23;99.36;98868.70;1743615;81;21050;-55
2022/10/05 07:01:54;;;;;;;10.63;6.42;;;;;;;9.28;99.36;98860.70;1757867;79;21382;-56
2022/10/05 07:04:32;;;;;;;10.25;6.67;;;;;;;9.36;99.40;98862.89;1765779;80;21022;-56
2022/10/05 07:07:13;;;;;;;11.90;6.17;;;;;;;9.45;99.23;98872.02;1771565;80;21036;-56
2022/10/05 07:09:49;;;;;;;12.60;7.35;;;;;;;9.52;98.58;98871.77;1731706;81;21525;-56
2022/10/05 07:12:37;;;;;;;12.80;6.47;;;;;;;9.52;98.58;98869.09;1763563;79;21081;-57
2022/10/05 07:15:18;;;;;;;12.73;6.28;;;;;;;9.53;98.53;98859.49;1752539;81;21330;-57
2022/10/05 07:18:12;;;;;;;11.38;7.25;;;;;;;9.53;97.91;98852.81;1752397;80;21547;-58
2022/10/05 07:20:53;;;;;;;12.25;6.90;;;;;;;9.46;97.21;98852.25;1715536;80;22976;-57
2022/10/05 07:23:53;;;;;;;15.50;7.28;;;;;;;9.37;97.00;98845.77;1772742;80;21202;-57
2022/10/05 07:26:28;;;;;;;11.93;6.40;;;;;;;9.36;97.33;98862.08;1688798;85;21573;-57
2022/10/05 07:29:16;;;;;;;10.43;5.70;;;;;;;9.39;97.29;98856.22;1758762;80;20934;-57
2022/10/05 07:32:20;;;;;;;12.47;6.72;;;;;;;9.50;97.17;98860.53;1766578;81;20994;-56
2022/10/05 07:38:42;;;;;;;13.13;5.47;;;;;;;9.97;97.37;98863.88;1768651;80;21233;-56
2022/10/05 07:41:26;;;;;;;9.88;5.33;;;;;;;10.20;95.99;98871.96;1757951;81;21143;-56
2022/10/05 07:44:21;;;;;;;11.18;5.12;;;;;;;10.36;94.82;98860.75;1764807;81;21399;-56
2022/10/05 07:46:55;;;;;;;9.10;4.00;;;;;;;10.51;94.31;98864.22;1760625;81;21030;-58
2022/10/05 07:50:02;;;;;;;7.60;4.90;;;;;;;10.73;93.71;98862.06;1755741;81;20928;-57
2022/10/05 07:52:40;;;;;;;8.33;4.67;;;;;;;10.91;93.02;98872.75;1760243;81;21200;-55
2022/10/05 07:55:22;;;;;;;8.85;5.47;;;;;;;11.10;91.98;98865.74;1749749;81;20976;-57
2022/10/05 07:58:22;;;;;;;9.35;4.80;;;;;;;11.25;91.40;98868.92;1752990;81;21006;-56
2022/10/05 08:01:24;;;;;;;10.13;4.37;;;;;;;11.39;90.08;98872.63;1690825;83;21056;-59
2022/10/05 08:04:18;;;;;;;7.20;4.15;;;;;;;11.48;86.47;98862.93;1735532;82;20971;-56
2022/10/05 08:06:58;;;;;;;9.53;4.37;;;;;;;11.46;86.83;98859.20;1740875;82;21239;-57
2022/10/05 08:09:58;;;;;;;10.93;4.60;;;;;;;11.43;85.77;98852.22;1743801;82;20931;-57
2022/10/05 08:13:11;;;;;;;9.93;4.15;;;;;;;11.33;86.09;98856.30;1745363;82;21037;-56
2022/10/05 08:15:43;;;;;;;9.98;4.33;;;;;;;11.30;86.28;98855.50;1717899;83;21263;-53
2022/10/05 08:18:50;;;;;;;7.65;3.55;;;;;;;11.32;86.73;98862.73;1749282;80;21039;-57
2022/10/05 08:21:25;;;;;;;7.58;3.45;;;;;;;11.43;87.10;98863.76;1736766;82;21144;-62
2022/10/05 08:24:16;;;;;;;10.45;4.03;;;;;;;11.73;87.53;98860.72;1747021;81;21040;-57
2022/10/05 08:27:00;;;;;;;8.08;3.77;;;;;;;12.00;85.17;98855.71;1711355;82;21622;-57
2022/10/05 08:30:00;;;;;;;11.63;4.78;;;;;;;12.29;85.17;98857.37;1739703;82;21102;-56
2022/10/05 08:32:32;;;;;;;8.83;3.83;;;;;;;12.56;85.33;98857.44;1735297;81;21348;-53
2022/10/05 08:35:17;;;;;;;7.85;3.60;;;;;;;12.74;81.85;98864.82;1738691;82;21113;-54
2022/10/05 08:37:44;;;;;;;5.20;3.42;;;;;;;12.72;80.71;98868.31;1739911;80;21017;-55
2022/10/05 08:40:38;;;;;;;7.53;3.05;;;;;;;12.64;79.83;98878.34;1766245;79;21121;-56
2022/10/05 08:43:26;;;;;;;6.60;3.35;;;;;;;12.59;80.02;98873.00;1757442;80;21150;-57
2022/10/05 08:46:10;;;;;;;7.85;3.22;;;;;;;12.72;80.52;98875.03;1756135;80;21532;-54
2022/10/05 08:49:05;;;;;;;10.00;3.25;;;;;;;12.91;80.52;98875.93;1748566;80;21145;-56
2022/10/05 08:52:12;;;;;;;5.72;3.05;;;;;;;13.11;79.47;98878.46;1747352;79;21528;-54
2022/10/05 08:55:11;;;;;;;7.58;3.12;;;;;;;13.25;77.98;98878.05;1775025;80;20954;-59
2022/10/05 08:57:46;;;;;;;6.33;3.10;;;;;;;13.42;77.38;98881.63;1771228;80;21014;-56
2022/10/05 09:00:23;;;;;;;11.35;5.30;;;;;;;13.65;76.93;98876.22;1763329;80;21142;-55
2022/10/05 09:03:07;;;;;;;7.47;3.02;;;;;;;13.65;76.93;98876.22;1743445;81;21107;-56
2022/10/05 09:05:48;;;;;;;5.22;2.33;;;;;;;13.93;76.01;98887.16;1734086;82;21557;-55
2022/10/05 09:09:05;;;;;;;10.65;3.17;;;;;;;14.11;73.79;98892.55;1734358;80;21060;-58
2022/10/05 09:11:39;;;;;;;7.70;2.60;;;;;;;14.10;70.09;98888.81;1717144;82;21091;-57
2022/10/05 09:14:32;;;;;;;7.08;2.55;;;;;;;14.02;70.40;98894.84;1732665;82;21137;-59
2022/10/05 09:17:16;;;;;;;6.78;2.83;;;;;;;14.10;70.00;98890.16;1713601;82;21349;-59
2022/10/05 09:19:59;;;;;;;6.45;3.12;;;;;;;14.21;67.97;98887.56;1713125;82;21150;-61
2022/10/05 09:22:37;;;;;;;9.68;3.45;;;;;;;14.22;68.45;98889.98;1683071;82;21023;-55
2022/10/05 09:25:41;;;;;;;4.85;2.65;;;;;;;14.33;67.81;98881.22;1730327;81;21082;-60
2022/10/05 09:28:31;;;;;;;5.75;2.80;;;;;;;14.46;68.58;98870.25;1711695;81;21071;-63
2022/10/05 09:31:21;;;;;;;6.92;2.20;;;;;;;14.60;66.56;98874.58;1705864;82;21245;-60
2022/10/05 09:34:19;;;;;;;7.62;2.60;;;;;;;14.54;66.00;98858.78;1712929;82;21041;-60
2022/10/05 09:37:16;;;;;;;6.70;3.02;;;;;;;14.46;67.18;98868.33;1711470;81;20985;-59
2022/10/05 09:40:31;;;;;;;6.83;2.90;;;;;;;14.44;67.33;98872.45;1734368;82;21018;-64
2022/10/05 09:43:18;;;;;;;7.95;3.27;;;;;;;14.35;68.29;98873.09;1725814;81;21079;-59
2022/10/05 09:46:08;;;;;;;9.60;2.95;;;;;;;14.25;68.31;98873.75;1710852;83;21125;-61
2022/10/05 09:48:50;;;;;;;5.08;2.47;;;;;;;14.17;69.54;98870.39;1724324;81;20979;-62
2022/10/05 09:51:37;;;;;;;10.30;3.10;;;;;;;14.20;69.00;98879.24;1734275;81;21133;-59
2022/10/05 09:54:31;;;;;;;7.15;2.92;;;;;;;14.21;68.58;98875.44;1733883;81;21094;-59
2022/10/05 09:57:32;;;;;;;7.40;2.65;;;;;;;14.28;69.55;98883.95;1745183;81;21038;-59
2022/10/05 10:00:19;;;;;;;6.17;2.90;;;;;;;14.44;68.47;98888.62;1719912;81;21775;-59
2022/10/05 10:03:10;;;;;;;6.70;2.87;;;;;;;14.49;67.58;98881.23;1756606;80;28191;-58
2022/10/05 10:06:09;;;;;;;4.53;2.75;;;;;;;14.41;67.29;98879.77;1733529;81;21232;-56
2022/10/05 10:08:46;;;;;;;8.05;3.47;;;;;;;14.34;67.72;98877.45;1706333;83;20940;-56
2022/10/05 10:11:24;;;;;;;8.05;3.62;;;;;;;14.34;66.60;98885.53;1725616;82;21094;-59
2022/10/05 10:14:35;;;;;;;6.85;3.05;;;;;;;14.26;66.88;98890.19;1747161;80;21255;-58
2022/10/05 10:17:34;;;;;;;8.65;3.20;;;;;;;14.11;67.95;98882.31;1723642;82;21071;-61
2022/10/05 10:20:19;;;;;;;5.62;3.05;;;;;;;14.05;68.74;98877.56;1734108;81;20936;-60
2022/10/05 10:23:17;;;;;;;5.93;2.43;;;;;;;13.99;69.57;98872.55;1717831;81;20996;-65
2022/10/05 10:26:11;;;;;;;5.25;2.62;;;;;;;14.07;70.33;98875.92;1749828;82;20864;-56
2022/10/05 10:28:59;;;;;;;6.30;2.87;;;;;;;14.30;70.09;98873.71;1758563;81;21258;-64
2022/10/05 10:32:22;;;;;;;7.00;3.08;;;;;;;14.56;69.48;98868.72;1648627;86;21114;-65
2022/10/05 10:35:34;;;;;;;7.60;3.20;;;;;;;14.73;69.06;98873.83;1741958;82;20928;-61
2022/10/05 10:38:34;;;;;;;6.90;2.98;;;;;;;14.85;67.11;98876.86;1750911;81;21017;-60
2022/10/05 10:41:21;;;;;;;7.70;2.70;;;;;;;14.91;67.63;98866.22;1730554;82;21089;-61
2022/10/05 10:44:02;;;;;;;7.72;3.30;;;;;;;15.10;67.29;98858.05;1728360;81;22006;-62
2022/10/05 10:46:35;;;;;;;9.18;3.35;;;;;;;15.25;68.41;98871.27;1735630;82;21117;-57
2022/10/05 10:49:25;;;;;;;5.83;3.02;;;;;;;15.38;66.40;98862.94;1733698;81;20979;-59
2022/10/05 10:52:22;;;;;;;8.60;3.45;;;;;;;15.51;65.56;98860.26;1714782;82;21030;-59
2022/10/05 10:55:27;;;;;;;8.30;3.47;;;;;;;15.55;64.08;98860.44;1740476;81;21113;-66
2022/10/05 10:58:22;;;;;;;8.78;3.42;;;;;;;15.49;64.39;98858.95;1746238;81;21424;-60
2022/10/05 11:04:38;;;;;;;5.90;3.10;;;;;;;15.44;65.26;98862.56;1715304;82;21051;-56
2022/10/05 11:07:26;;;;;;;7.92;2.90;;;;;;;15.35;65.30;98859.48;1722086;83;20908;-57
2022/10/05 11:10:21;;;;;;;13.10;3.40;;;;;;;15.31;65.59;98866.59;1724383;82;21092;-62
2022/10/05 11:13:18;;;;;;;10.32;3.60;;;;;;;15.29;65.83;98863.36;1734580;82;21679;-64
2022/10/05 11:16:15;;;;;;;7.53;3.47;;;;;;;15.38;66.14;98865.06;1738661;82;21015;-63
2022/10/05 11:19:25;;;;;;;7.30;3.00;;;;;;;15.50;66.02;98853.79;1749242;81;20986;-62
2022/10/05 11:22:25;;;;;;;8.83;3.72;;;;;;;15.65;66.27;98863.75;1727517;81;21151;-60
2022/10/05 11:25:27;;;;;;;7.12;3.65;;;;;;;15.79;64.75;98861.56;1727858;81;22564;-58
2022/10/05 11:28:23;;;;;;;7.92;3.45;;;;;;;15.83;64.12;98852.55;1709749;81;21252;-62
2022/10/05 11:31:05;;;;;;;;;;;;;;;15.93;64.49;98873.95;1710139;82;21043;-63
2022/10/05 11:34:21;;;;;;;6.60;3.70;;;;;;;15.95;62.37;98860.93;1709779;82;20246;-59
2022/10/05 11:37:18;;;;;;;5.45;3.02;;;;;;;15.73;63.71;98871.12;1702318;82;21549;-61
2022/10/05 11:40:36;;;;;;;7.03;3.55;;;;;;;15.53;62.88;98863.45;1759157;80;21543;-61
2022/10/05 11:43:25;;;;;;;6.35;3.17;;;;;;;15.46;63.36;98860.90;1722125;80;22146;-60
2022/10/05 11:46:12;;;;;;;9.03;2.90;;;;;;;15.53;64.26;98857.25;1738302;80;20960;-62
2022/10/05 11:49:06;;;;;;;8.18;3.20;;;;;;;15.55;62.92;98855.04;1745274;80;21004;-61
2022/10/05 11:52:12;;;;;;;6.90;2.75;;;;;;;15.62;62.63;98856.78;1747958;80;21088;-59
2022/10/05 11:55:01;;;;;;;9.68;2.98;;;;;;;15.77;62.02;98852.97;1746881;80;21466;-59
2022/10/05 11:57:51;;;;;;;5.55;2.70;;;;;;;15.97;61.31;98858.72;1736727;79;21253;-59
2022/10/05 12:00:49;;;;;;;9.95;2.90;;;;;;;16.19;60.46;98852.01;1745071;80;21530;-61
2022/10/05 12:03:33;;;;;;;8.05;3.00;;;;;;;16.37;60.02;98861.84;1747043;80;21035;-59
2022/10/05 12:06:39;;;;;;;5.70;2.95;;;;;;;16.50;58.76;98863.45;1786065;79;21113;-62
2022/10/05 12:13:03;;;;;;;5.25;2.70;;;;;;;16.74;58.84;98851.25;1741581;80;21146;-60
2022/10/05 12:15:46;;;;;;;7.50;2.75;;;;;;;17.08;58.57;98851.96;1746501;80;21092;-60
2022/10/05 12:18:38;;;;;;;6.70;2.67;;;;;;;17.24;57.95;98849.08;1755119;80;20947;-59
2022/10/05 12:21:37;;;;;;;5.17;2.40;;;;;;;17.19;57.29;98839.77;1746693;80;20985;-60
2022/10/05 12:24:22;;;;;;;4.42;2.42;;;;;;;17.20;57.91;98838.64;1747595;80;21028;-60
2022/10/05 12:27:01;;;;;;;6.58;3.00;;;;;;;17.43;58.04;98833.38;1810958;77;21188;-64
2022/10/05 12:29:45;;;;;;;5.12;2.30;;;;;;;17.57;55.03;98840.86;1801469;77;20877;-61
2022/10/05 12:32:34;;;;;;;6.53;2.35;;;;;;;17.41;55.61;98839.67;1805916;77;21261;-61
2022/10/05 12:35:18;;;;;;;5.45;2.50;;;;;;;17.20;56.04;98841.35;1810930;77;21087;-59
2022/10/05 12:38:15;;;;;;;5.15;2.40;;;;;;;16.97;56.40;98847.39;1813677;77;20895;-63
2022/10/05 12:41:04;;;;;;;7.78;2.35;;;;;;;16.74;56.13;98840.98;1837964;77;20883;-61
2022/10/05 12:43:54;;;;;;;4.62;2.22;;;;;;;16.56;56.87;98840.63;1828961;77;20999;-61
2022/10/05 12:47:01;;;;;;;5.55;2.15;;;;;;;16.40;56.91;98842.31;1827968;78;20985;-59
2022/10/05 12:49:48;;;;;;;5.03;2.27;;;;;;;16.29;57.63;98861.24;1828780;77;21560;-58
2022/10/05 12:52:38;;;;;;;4.37;1.90;;;;;;;16.13;57.04;98860.55;1796011;78;20921;-60
2022/10/05 12:55:16;;;;;;;5.85;2.15;;;;;;;16.03;57.43;98857.52;1832325;77;21404;-62
2022/10/05 12:58:13;;;;;;;5.62;2.37;;;;;;;15.97;57.83;98843.86;1841191;77;20975;-62
2022/10/05 13:01:05;;;;;;;9.78;2.50;;;;;;;15.92;57.08;98842.62;1802904;78;21697;-60
2022/10/05 13:03:40;;;;;;;3.65;2.15;;;;;;;15.83;58.18;98847.14;1824386;78;20906;-66
2022/10/05 13:06:16;;;;;;;;;;;;;;;15.78;59.01;98854.00;1831207;77;20937;-61
2022/10/05 13:09:05;;;;;;;9.65;3.70;;;;;;;15.71;58.40;98848.22;1791992;79;20703;-59
2022/10/05 13:11:48;;;;;;;5.67;2.37;;;;;;;15.66;59.55;98844.30;1756770;80;21092;-60
2022/10/05 13:14:47;;;;;;;3.42;1.80;;;;;;;15.64;59.88;98849.98;1771200;80;21090;-60
2022/10/05 13:17:34;;;;;;;6.50;2.50;;;;;;;15.71;59.62;98851.72;1788000;79;20943;-59
2022/10/05 13:20:07;;;;;;;4.10;2.22;;;;;;;15.87;59.41;98861.66;1769498;80;21576;-59
2022/10/05 13:22:51;;;;;;;3.67;2.08;;;;;;;15.94;59.20;98857.20;1778824;78;21005;-60
2022/10/05 13:25:35;;;;;;;4.67;2.02;;;;;;;15.88;59.19;98852.44;1815507;79;20934;-60